M53 weather

Humboldt Municipal Airport
Humboldt, Tennessee, United States

Public forecast

Using degrees Fahrenheit for public forecast. Weather courtesy of forecast.io.

METAR (pilot weather report)

Closest report is McKellar-Sipes Regional Airport, 12.3 nm (22.8 km) S. Retrieved 2019/08/25 22:53 UTC (1 hour ago):

KMKL 252253Z 20004KT 10SM -RA FEW036 BKN090 OVC110 28/24 A2988 RMK AO2 LTG DSNT N AND NE RAB49 SLP113 P0000 T02780244

TAF (pilot weather forecast)

Closest forecast is McKellar-Sipes Regional Airport, 12.3 nm (22.8 km) S. Retrieved 2019/08/25 18:39 UTC (5 hours ago):

TAF KMKL 251737Z 2518/2618 13004KT P6SM VCSH BKN025 FM251900 14004KT P6SM VCTS FEW035CB BKN040 TEMPO 2521/2524 VRB10KT 4SM TSRA SCT010 OVC035CB FM260200 16003KT P6SM VCSH SCT020 BKN060 FM260600 18004KT 6SM -SHRA BKN015 FM261000 18005KT 5SM -SHRA VCTS BKN009 OVC015CB FM261500 19007KT P6SM VCTS BKN010 OVC020CB